sensor_id;sensor_type;location;lat;lon;timestamp;pressure;altitude;pressure_sealevel;temperature;humidity
5413;BME280;2729;50.056;8.678;2023-02-03T00:01:31;101380.72;;;9.83;100.00
5413;BME280;2729;50.056;8.678;2023-02-03T00:03:57;101386.00;;;9.71;100.00
5413;BME280;2729;50.056;8.678;2023-02-03T00:06:23;101374.63;;;9.84;100.00
5413;BME280;2729;50.056;8.678;2023-02-03T00:08:52;101356.34;;;9.92;100.00
5413;BME280;2729;50.056;8.678;2023-02-03T00:11:19;101356.44;;;9.74;100.00
5413;BME280;2729;50.056;8.678;2023-02-03T00:13:45;101338.19;;;9.71;100.00
5413;BME280;2729;50.056;8.678;2023-02-03T00:16:11;101326.91;;;9.68;100.00
5413;BME280;2729;50.056;8.678;2023-02-03T00:18:37;101330.44;;;9.60;100.00
5413;BME280;2729;50.056;8.678;2023-02-03T00:21:04;101330.44;;;9.52;100.00
5413;BME280;2729;50.056;8.678;2023-02-03T00:23:30;101326.94;;;9.61;100.00
5413;BME280;2729;50.056;8.678;2023-02-03T00:26:05;101328.59;;;9.83;100.00
5413;BME280;2729;50.056;8.678;2023-02-03T00:28:32;101312.00;;;9.98;100.00
5413;BME280;2729;50.056;8.678;2023-02-03T00:30:57;101330.38;;;9.69;100.00
5413;BME280;2729;50.056;8.678;2023-02-03T00:33:23;101330.31;;;9.87;100.00
5413;BME280;2729;50.056;8.678;2023-02-03T00:35:49;101334.69;;;9.81;100.00
5413;BME280;2729;50.056;8.678;2023-02-03T00:38:15;101339.94;;;9.68;100.00
5413;BME280;2729;50.056;8.678;2023-02-03T00:40:41;101346.09;;;9.54;100.00
5413;BME280;2729;50.056;8.678;2023-02-03T00:43:07;101347.72;;;9.79;100.00
5413;BME280;2729;50.056;8.678;2023-02-03T00:45:33;101351.19;;;9.81;100.00
5413;BME280;2729;50.056;8.678;2023-02-03T00:47:59;101346.91;;;9.68;100.00
5413;BME280;2729;50.056;8.678;2023-02-03T00:50:25;101344.25;;;9.77;100.00
5413;BME280;2729;50.056;8.678;2023-02-03T00:52:51;101341.72;;;9.62;100.00
5413;BME280;2729;50.056;8.678;2023-02-03T00:55:17;101339.09;;;9.66;100.00
5413;BME280;2729;50.056;8.678;2023-02-03T00:57:43;101327.69;;;9.89;100.00
5413;BME280;2729;50.056;8.678;2023-02-03T01:00:10;101318.22;;;9.71;100.00
5413;BME280;2729;50.056;8.678;2023-02-03T01:02:36;101307.69;;;9.92;100.00
5413;BME280;2729;50.056;8.678;2023-02-03T01:05:02;101291.34;;;9.60;100.00
5413;BME280;2729;50.056;8.678;2023-02-03T01:07:30;101269.59;;;9.61;100.00
5413;BME280;2729;50.056;8.678;2023-02-03T01:09:56;101263.63;;;9.36;100.00
5413;BME280;2729;50.056;8.678;2023-02-03T01:12:22;101251.47;;;9.38;100.00
5413;BME280;2729;50.056;8.678;2023-02-03T01:14:48;101270.53;;;9.46;100.00
5413;BME280;2729;50.056;8.678;2023-02-03T01:17:15;101292.25;;;9.50;100.00
5413;BME280;2729;50.056;8.678;2023-02-03T01:19:41;101297.53;;;9.31;100.00
5413;BME280;2729;50.056;8.678;2023-02-03T01:22:07;101295.72;;;9.53;100.00
5413;BME280;2729;50.056;8.678;2023-02-03T01:24:33;101289.50;;;9.77;100.00
5413;BME280;2729;50.056;8.678;2023-02-03T01:26:59;101285.19;;;9.73;100.00
5413;BME280;2729;50.056;8.678;2023-02-03T01:29:27;101281.41;;;10.26;100.00
5413;BME280;2729;50.056;8.678;2023-02-03T01:31:54;101281.63;;;9.86;100.00
5413;BME280;2729;50.056;8.678;2023-02-03T01:34:20;101270.38;;;9.77;100.00
5413;BME280;2729;50.056;8.678;2023-02-03T01:36:46;101282.56;;;9.75;100.00
5413;BME280;2729;50.056;8.678;2023-02-03T01:39:12;101285.06;;;9.94;100.00
5413;BME280;2729;50.056;8.678;2023-02-03T01:41:38;101276.22;;;10.20;100.00
5413;BME280;2729;50.056;8.678;2023-02-03T01:47:11;101286.94;;;9.68;100.00
5413;BME280;2729;50.056;8.678;2023-02-03T01:49:39;101283.34;;;9.93;100.00
5413;BME280;2729;50.056;8.678;2023-02-03T01:52:06;101280.88;;;9.69;100.00
5413;BME280;2729;50.056;8.678;2023-02-03T01:54:37;101276.41;;;9.86;100.00
5413;BME280;2729;50.056;8.678;2023-02-03T01:57:10;101278.28;;;9.61;100.00
5413;BME280;2729;50.056;8.678;2023-02-03T01:59:38;101262.66;;;9.63;100.00
5413;BME280;2729;50.056;8.678;2023-02-03T02:02:06;101262.63;;;9.69;100.00
5413;BME280;2729;50.056;8.678;2023-02-03T02:04:47;101260.88;;;9.71;100.00
5413;BME280;2729;50.056;8.678;2023-02-03T02:07:17;101251.38;;;9.61;100.00
5413;BME280;2729;50.056;8.678;2023-02-03T02:09:44;101261.94;;;9.30;100.00
5413;BME280;2729;50.056;8.678;2023-02-03T02:12:10;101259.25;;;9.50;100.00
5413;BME280;2729;50.056;8.678;2023-02-03T02:14:38;101248.84;;;9.46;100.00
5413;BME280;2729;50.056;8.678;2023-02-03T02:17:12;101248.66;;;9.81;100.00
5413;BME280;2729;50.056;8.678;2023-02-03T02:23:05;101244.09;;;10.12;100.00
5413;BME280;2729;50.056;8.678;2023-02-03T02:25:54;101258.34;;;9.57;100.00
5413;BME280;2729;50.056;8.678;2023-02-03T02:28:40;101266.16;;;9.53;100.00
5413;BME280;2729;50.056;8.678;2023-02-03T02:34:19;101284.41;;;9.54;100.00
5413;BME280;2729;50.056;8.678;2023-02-03T02:39:36;101271.19;;;9.91;100.00
5413;BME280;2729;50.056;8.678;2023-02-03T02:42:13;101269.38;;;10.00;100.00
5413;BME280;2729;50.056;8.678;2023-02-03T02:44:45;101285.94;;;9.95;100.00
5413;BME280;2729;50.056;8.678;2023-02-03T02:47:21;101282.59;;;9.67;100.00
5413;BME280;2729;50.056;8.678;2023-02-03T02:49:57;101293.78;;;9.87;100.00
5413;BME280;2729;50.056;8.678;2023-02-03T02:52:27;101299.03;;;9.84;100.00
5413;BME280;2729;50.056;8.678;2023-02-03T02:54:58;101291.19;;;9.87;100.00
5413;BME280;2729;50.056;8.678;2023-02-03T02:57:27;101299.91;;;9.85;100.00
5413;BME280;2729;50.056;8.678;2023-02-03T02:59:56;101292.81;;;10.05;100.00
5413;BME280;2729;50.056;8.678;2023-02-03T03:02:34;101308.56;;;9.88;100.00
5413;BME280;2729;50.056;8.678;2023-02-03T03:05:03;101293.56;;;10.28;100.00
5413;BME280;2729;50.056;8.678;2023-02-03T03:07:34;101284.16;;;9.98;100.00
5413;BME280;2729;50.056;8.678;2023-02-03T03:10:06;101292.09;;;9.80;100.00
5413;BME280;2729;50.056;8.678;2023-02-03T03:12:37;101283.44;;;9.77;100.00
5413;BME280;2729;50.056;8.678;2023-02-03T03:15:11;101273.03;;;9.69;100.00
5413;BME280;2729;50.056;8.678;2023-02-03T03:17:50;101275.53;;;9.89;100.00
5413;BME280;2729;50.056;8.678;2023-02-03T03:20:20;101274.50;;;10.16;100.00
5413;BME280;2729;50.056;8.678;2023-02-03T03:22:56;101279.88;;;9.91;100.00
5413;BME280;2729;50.056;8.678;2023-02-03T03:25:29;101287.72;;;9.88;100.00
5413;BME280;2729;50.056;8.678;2023-02-03T03:28:02;101290.38;;;9.78;100.00
5413;BME280;2729;50.056;8.678;2023-02-03T03:30:34;101292.13;;;9.73;100.00
5413;BME280;2729;50.056;8.678;2023-02-03T03:33:01;101286.09;;;9.61;100.00
5413;BME280;2729;50.056;8.678;2023-02-03T03:35:38;101284.41;;;9.54;100.00
5413;BME280;2729;50.056;8.678;2023-02-03T03:38:18;101263.59;;;9.48;100.00
5413;BME280;2729;50.056;8.678;2023-02-03T03:40:52;101245.34;;;9.47;100.00
5413;BME280;2729;50.056;8.678;2023-02-03T03:43:26;101253.19;;;9.42;100.00
5413;BME280;2729;50.056;8.678;2023-02-03T03:45:56;101245.34;;;9.50;100.00
5413;BME280;2729;50.056;8.678;2023-02-03T03:48:36;101231.44;;;9.52;100.00
5413;BME280;2729;50.056;8.678;2023-02-03T03:51:12;101242.72;;;9.50;100.00
5413;BME280;2729;50.056;8.678;2023-02-03T03:53:41;101251.38;;;9.58;100.00
5413;BME280;2729;50.056;8.678;2023-02-03T03:56:13;101275.69;;;9.58;100.00
5413;BME280;2729;50.056;8.678;2023-02-03T03:58:43;101274.88;;;9.46;100.00
5413;BME280;2729;50.056;8.678;2023-02-03T04:01:13;101275.81;;;9.35;100.00
5413;BME280;2729;50.056;8.678;2023-02-03T04:03:47;101260.97;;;9.50;100.00
5413;BME280;2729;50.056;8.678;2023-02-03T04:06:14;101251.44;;;9.47;100.00
5413;BME280;2729;50.056;8.678;2023-02-03T04:08:40;101248.72;;;9.67;100.00
5413;BME280;2729;50.056;8.678;2023-02-03T04:11:06;101245.22;;;9.70;100.00
5413;BME280;2729;50.056;8.678;2023-02-03T04:13:32;101250.44;;;9.73;100.00
5413;BME280;2729;50.056;8.678;2023-02-03T04:15:58;101253.59;;;10.23;100.00
5413;BME280;2729;50.056;8.678;2023-02-03T04:18:24;101271.19;;;9.89;100.00
5413;BME280;2729;50.056;8.678;2023-02-03T04:20:50;101272.06;;;9.88;100.00
5413;BME280;2729;50.056;8.678;2023-02-03T04:23:16;101273.75;;;9.98;100.00
5413;BME280;2729;50.056;8.678;2023-02-03T04:25:42;101279.00;;;9.89;100.00
5413;BME280;2729;50.056;8.678;2023-02-03T04:28:08;101278.13;;;9.92;100.00
5413;BME280;2729;50.056;8.678;2023-02-03T04:30:34;101276.41;;;9.86;100.00
5413;BME280;2729;50.056;8.678;2023-02-03T04:33:00;101256.25;;;10.13;100.00
5413;BME280;2729;50.056;8.678;2023-02-03T04:35:26;101250.41;;;9.74;100.00
5413;BME280;2729;50.056;8.678;2023-02-03T04:37:52;101233.81;;;9.87;100.00
5413;BME280;2729;50.056;8.678;2023-02-03T04:40:18;101235.59;;;9.81;100.00
5413;BME280;2729;50.056;8.678;2023-02-03T04:42:44;101257.41;;;9.69;100.00
5413;BME280;2729;50.056;8.678;2023-02-03T04:45:11;101277.38;;;9.72;100.00
5413;BME280;2729;50.056;8.678;2023-02-03T04:47:37;101291.44;;;9.29;100.00
5413;BME280;2729;50.056;8.678;2023-02-03T04:50:04;101293.94;;;9.60;100.00
5413;BME280;2729;50.056;8.678;2023-02-03T04:52:30;101293.84;;;9.77;100.00
5413;BME280;2729;50.056;8.678;2023-02-03T04:54:56;101300.84;;;9.68;100.00
5413;BME280;2729;50.056;8.678;2023-02-03T04:57:22;101280.97;;;9.48;100.00
5413;BME280;2729;50.056;8.678;2023-02-03T04:59:48;101276.50;;;9.70;100.00
5413;BME280;2729;50.056;8.678;2023-02-03T05:02:14;101254.97;;;9.34;100.00
5413;BME280;2729;50.056;8.678;2023-02-03T05:04:40;101247.06;;;9.54;100.00
5413;BME280;2729;50.056;8.678;2023-02-03T05:07:06;101257.34;;;9.81;100.00
5413;BME280;2729;50.056;8.678;2023-02-03T05:09:32;101271.44;;;9.39;100.00
5413;BME280;2729;50.056;8.678;2023-02-03T05:11:57;101265.38;;;9.37;100.00
5413;BME280;2729;50.056;8.678;2023-02-03T05:14:23;101257.56;;;9.39;100.00
5413;BME280;2729;50.056;8.678;2023-02-03T05:16:49;101250.66;;;9.22;100.00
5413;BME280;2729;50.056;8.678;2023-02-03T05:19:15;101245.44;;;9.28;100.00
5413;BME280;2729;50.056;8.678;2023-02-03T05:21:41;101220.19;;;9.44;100.00
5413;BME280;2729;50.056;8.678;2023-02-03T05:24:07;101226.25;;;9.45;100.00
5413;BME280;2729;50.056;8.678;2023-02-03T05:26:34;101237.56;;;9.42;100.00
5413;BME280;2729;50.056;8.678;2023-02-03T05:29:00;101242.00;;;9.17;100.00
5413;BME280;2729;50.056;8.678;2023-02-03T05:31:26;101228.94;;;9.29;100.00
5413;BME280;2729;50.056;8.678;2023-02-03T05:33:52;101232.97;;;9.85;100.00
5413;BME280;2729;50.056;8.678;2023-02-03T05:36:18;101223.44;;;9.80;100.00
5413;BME280;2729;50.056;8.678;2023-02-03T05:38:44;101226.28;;;9.39;100.00
5413;BME280;2729;50.056;8.678;2023-02-03T05:41:11;101227.78;;;9.82;100.00
5413;BME280;2729;50.056;8.678;2023-02-03T05:43:56;101217.38;;;9.76;100.00
5413;BME280;2729;50.056;8.678;2023-02-03T05:46:22;101215.69;;;9.71;100.00
5413;BME280;2729;50.056;8.678;2023-02-03T05:48:48;101219.94;;;9.85;100.00
5413;BME280;2729;50.056;8.678;2023-02-03T05:51:14;101214.00;;;9.63;100.00
5413;BME280;2729;50.056;8.678;2023-02-03T05:53:40;101222.78;;;9.43;100.00
5413;BME280;2729;50.056;8.678;2023-02-03T05:56:06;101220.91;;;9.69;100.00
5413;BME280;2729;50.056;8.678;2023-02-03T05:58:32;101223.38;;;9.89;100.00
5413;BME280;2729;50.056;8.678;2023-02-03T06:00:58;101222.66;;;9.65;100.00
5413;BME280;2729;50.056;8.678;2023-02-03T06:03:24;101222.66;;;9.67;100.00
5413;BME280;2729;50.056;8.678;2023-02-03T06:05:50;101230.47;;;9.68;100.00
5413;BME280;2729;50.056;8.678;2023-02-03T06:08:16;101233.94;;;9.69;100.00
5413;BME280;2729;50.056;8.678;2023-02-03T06:10:42;101219.13;;;9.77;100.00
5413;BME280;2729;50.056;8.678;2023-02-03T06:13:15;101221.59;;;9.97;100.00
5413;BME280;2729;50.056;8.678;2023-02-03T06:15:41;101230.22;;;10.07;100.00
5413;BME280;2729;50.056;8.678;2023-02-03T06:18:07;101225.94;;;9.95;100.00
5413;BME280;2729;50.056;8.678;2023-02-03T06:20:33;101218.50;;;10.59;100.00
5413;BME280;2729;50.056;8.678;2023-02-03T06:22:59;101210.13;;;10.18;100.00
5413;BME280;2729;50.056;8.678;2023-02-03T06:25:26;101221.56;;;10.02;100.00
5413;BME280;2729;50.056;8.678;2023-02-03T06:27:52;101221.59;;;9.97;100.00
5413;BME280;2729;50.056;8.678;2023-02-03T06:30:18;101216.56;;;9.70;100.00
5413;BME280;2729;50.056;8.678;2023-02-03T06:32:45;101227.94;;;9.58;100.00
5413;BME280;2729;50.056;8.678;2023-02-03T06:35:11;101208.00;;;9.46;100.00
5413;BME280;2729;50.056;8.678;2023-02-03T06:37:36;101213.69;;;10.09;100.00
5413;BME280;2729;50.056;8.678;2023-02-03T06:40:03;101204.19;;;9.97;100.00
5413;BME280;2729;50.056;8.678;2023-02-03T06:42:30;101214.00;;;9.62;100.00
5413;BME280;2729;50.056;8.678;2023-02-03T06:44:55;101214.72;;;9.84;100.00
5413;BME280;2729;50.056;8.678;2023-02-03T06:47:21;101213.00;;;9.83;100.00
5413;BME280;2729;50.056;8.678;2023-02-03T06:49:47;101224.91;;;10.17;100.00
5413;BME280;2729;50.056;8.678;2023-02-03T06:52:13;101245.25;;;9.66;100.00
5413;BME280;2729;50.056;8.678;2023-02-03T06:54:40;101255.66;;;9.73;100.00
5413;BME280;2729;50.056;8.678;2023-02-03T06:57:06;101251.28;;;9.78;100.00
5413;BME280;2729;50.056;8.678;2023-02-03T06:59:32;101245.78;;;10.16;100.00
5413;BME280;2729;50.056;8.678;2023-02-03T07:01:58;101245.25;;;9.66;100.00
5413;BME280;2729;50.056;8.678;2023-02-03T07:04:24;101234.78;;;9.74;100.00
5413;BME280;2729;50.056;8.678;2023-02-03T07:06:53;101224.38;;;9.70;100.00
5413;BME280;2729;50.056;8.678;2023-02-03T07:09:18;101225.06;;;9.97;100.00
5413;BME280;2729;50.056;8.678;2023-02-03T07:11:44;101225.69;;;10.33;100.00
5413;BME280;2729;50.056;8.678;2023-02-03T07:14:10;101237.75;;;10.49;100.00
5413;BME280;2729;50.056;8.678;2023-02-03T07:16:36;101236.88;;;10.49;100.00
5413;BME280;2729;50.056;8.678;2023-02-03T07:19:03;101244.13;;;10.06;100.00
5413;BME280;2729;50.056;8.678;2023-02-03T07:21:29;101238.09;;;10.00;100.00
5413;BME280;2729;50.056;8.678;2023-02-03T07:23:54;101239.88;;;9.94;100.00
5413;BME280;2729;50.056;8.678;2023-02-03T07:26:20;101229.44;;;9.95;100.00
5413;BME280;2729;50.056;8.678;2023-02-03T07:28:47;101243.16;;;10.23;100.00
5413;BME280;2729;50.056;8.678;2023-02-03T07:31:14;101231.84;;;10.24;100.00
5413;BME280;2729;50.056;8.678;2023-02-03T07:33:40;101234.28;;;10.47;100.00
5413;BME280;2729;50.056;8.678;2023-02-03T07:36:06;101217.34;;;10.88;100.00
5413;BME280;2729;50.056;8.678;2023-02-03T07:38:32;101236.25;;;10.12;100.00
5413;BME280;2729;50.056;8.678;2023-02-03T07:40:58;101247.53;;;10.21;100.00
5413;BME280;2729;50.056;8.678;2023-02-03T07:43:24;101241.44;;;10.18;100.00
5413;BME280;2729;50.056;8.678;2023-02-03T07:45:50;101234.44;;;10.27;100.00
5413;BME280;2729;50.056;8.678;2023-02-03T07:48:16;101242.97;;;10.49;100.00
5413;BME280;2729;50.056;8.678;2023-02-03T07:50:42;101236.03;;;10.47;100.00
5413;BME280;2729;50.056;8.678;2023-02-03T07:53:08;101240.63;;;10.11;100.00
5413;BME280;2729;50.056;8.678;2023-02-03T07:55:36;101252.69;;;10.27;100.00
5413;BME280;2729;50.056;8.678;2023-02-03T07:58:02;101251.03;;;10.13;100.00
5413;BME280;2729;50.056;8.678;2023-02-03T08:00:28;101258.94;;;10.02;100.00
5413;BME280;2729;50.056;8.678;2023-02-03T08:02:54;101248.44;;;10.10;100.00
5413;BME280;2729;50.056;8.678;2023-02-03T08:05:20;101241.38;;;10.28;100.00
5413;BME280;2729;50.056;8.678;2023-02-03T08:07:46;101246.53;;;10.36;100.00
5413;BME280;2729;50.056;8.678;2023-02-03T08:10:13;101249.78;;;10.66;100.00
5413;BME280;2729;50.056;8.678;2023-02-03T08:12:40;101254.34;;;10.39;100.00
5413;BME280;2729;50.056;8.678;2023-02-03T08:15:08;101247.44;;;10.32;100.00
5413;BME280;2729;50.056;8.678;2023-02-03T08:17:34;101231.53;;;10.62;100.00
5413;BME280;2729;50.056;8.678;2023-02-03T08:20:00;101237.97;;;10.20;100.00
5413;BME280;2729;50.056;8.678;2023-02-03T08:22:26;101217.00;;;10.31;100.00
5413;BME280;2729;50.056;8.678;2023-02-03T08:24:52;101231.88;;;10.21;100.00
5413;BME280;2729;50.056;8.678;2023-02-03T08:27:20;101226.38;;;10.55;100.00
5413;BME280;2729;50.056;8.678;2023-02-03T08:29:47;101223.16;;;10.19;100.00
5413;BME280;2729;50.056;8.678;2023-02-03T08:32:15;101208.50;;;11.01;100.00
5413;BME280;2729;50.056;8.678;2023-02-03T08:34:43;101208.06;;;10.61;100.00
5413;BME280;2729;50.056;8.678;2023-02-03T08:37:11;101218.78;;;10.27;100.00
5413;BME280;2729;50.056;8.678;2023-02-03T08:39:37;101209.25;;;10.23;100.00
5413;BME280;2729;50.056;8.678;2023-02-03T08:42:03;101220.50;;;10.30;100.00
5413;BME280;2729;50.056;8.678;2023-02-03T08:44:30;101229.66;;;10.75;100.00
5413;BME280;2729;50.056;8.678;2023-02-03T08:46:56;101224.50;;;10.71;100.00
5413;BME280;2729;50.056;8.678;2023-02-03T08:49:24;101211.72;;;10.43;100.00
5413;BME280;2729;50.056;8.678;2023-02-03T08:51:50;101211.53;;;10.61;100.00
5413;BME280;2729;50.056;8.678;2023-02-03T08:54:17;101206.94;;;10.83;100.00
5413;BME280;2729;50.056;8.678;2023-02-03T08:56:44;101194.72;;;11.56;100.00
5413;BME280;2729;50.056;8.678;2023-02-03T08:59:11;101203.19;;;11.07;100.00
5413;BME280;2729;50.056;8.678;2023-02-03T09:01:37;101215.03;;;10.60;100.00
5413;BME280;2729;50.056;8.678;2023-02-03T09:04:06;101204.34;;;10.82;100.00
5413;BME280;2729;50.056;8.678;2023-02-03T09:06:34;101196.19;;;11.09;100.00
5413;BME280;2729;50.056;8.678;2023-02-03T09:08:59;101197.63;;;10.61;100.00
5413;BME280;2729;50.056;8.678;2023-02-03T09:11:25;101184.09;;;11.04;100.00
5413;BME280;2729;50.056;8.678;2023-02-03T09:13:51;101197.31;;;10.90;100.00
5413;BME280;2729;50.056;8.678;2023-02-03T09:16:18;101196.44;;;10.89;100.00
5413;BME280;2729;50.056;8.678;2023-02-03T09:18:46;101197.91;;;11.13;100.00
5413;BME280;2729;50.056;8.678;2023-02-03T09:21:13;101198.44;;;10.65;100.00
5413;BME280;2729;50.056;8.678;2023-02-03T09:23:42;101210.31;;;10.93;100.00
5413;BME280;2729;50.056;8.678;2023-02-03T09:26:11;101220.81;;;10.90;100.00
5413;BME280;2729;50.056;8.678;2023-02-03T09:28:37;101247.81;;;10.89;100.00
5413;BME280;2729;50.056;8.678;2023-02-03T09:31:05;101220.69;;;11.01;100.00
5413;BME280;2729;50.056;8.678;2023-02-03T09:33:32;101227.88;;;10.79;100.00
5413;BME280;2729;50.056;8.678;2023-02-03T09:35:59;101234.72;;;10.92;100.00
5413;BME280;2729;50.056;8.678;2023-02-03T09:38:26;101223.31;;;10.99;100.00
5413;BME280;2729;50.056;8.678;2023-02-03T09:40:55;101210.00;;;11.20;100.00
5413;BME280;2729;50.056;8.678;2023-02-03T09:43:30;101199.00;;;10.92;100.00
5413;BME280;2729;50.056;8.678;2023-02-03T09:46:12;101196.06;;;11.20;100.00
5413;BME280;2729;50.056;8.678;2023-02-03T09:48:43;101202.09;;;11.26;100.00
5413;BME280;2729;50.056;8.678;2023-02-03T09:51:24;101197.75;;;11.24;100.00
5413;BME280;2729;50.056;8.678;2023-02-03T09:53:59;101194.53;;;11.02;100.00
5413;BME280;2729;50.056;8.678;2023-02-03T09:56:29;101182.09;;;11.22;100.00
5413;BME280;2729;50.056;8.678;2023-02-03T09:58:56;101180.63;;;11.66;100.00
5413;BME280;2729;50.056;8.678;2023-02-03T10:01:24;101161.13;;;11.88;100.00
5413;BME280;2729;50.056;8.678;2023-02-03T10:04:04;101176.06;;;11.82;100.00
5413;BME280;2729;50.056;8.678;2023-02-03T10:06:40;101163.06;;;11.74;100.00
5413;BME280;2729;50.056;8.678;2023-02-03T10:09:16;101171.28;;;11.50;100.00
5413;BME280;2729;50.056;8.678;2023-02-03T10:12:06;101180.78;;;11.55;100.00
5413;BME280;2729;50.056;8.678;2023-02-03T10:18:05;101166.47;;;12.33;100.00
5413;BME280;2729;50.056;8.678;2023-02-03T10:20:46;101164.78;;;11.78;100.00
5413;BME280;2729;50.056;8.678;2023-02-03T10:23:16;101159.78;;;12.17;100.00
5413;BME280;2729;50.056;8.678;2023-02-03T10:25:46;101163.56;;;12.48;100.00
5413;BME280;2729;50.056;8.678;2023-02-03T10:28:18;101159.41;;;11.87;100.00
5413;BME280;2729;50.056;8.678;2023-02-03T10:30:48;101165.78;;;12.22;100.00
5413;BME280;2729;50.056;8.678;2023-02-03T10:33:17;101145.47;;;11.87;100.00
5413;BME280;2729;50.056;8.678;2023-02-03T10:36:02;101159.56;;;11.75;100.00
5413;BME280;2729;50.056;8.678;2023-02-03T10:41:07;101181.69;;;11.51;100.00
5413;BME280;2729;50.056;8.678;2023-02-03T10:43:33;101179.28;;;11.98;100.00
5413;BME280;2729;50.056;8.678;2023-02-03T10:46:13;101185.78;;;11.71;100.00
5413;BME280;2729;50.056;8.678;2023-02-03T10:48:39;101177.41;;;12.06;100.00
5413;BME280;2729;50.056;8.678;2023-02-03T10:51:16;101183.13;;;12.29;100.00
5413;BME280;2729;50.056;8.678;2023-02-03T10:53:43;101192.69;;;11.78;100.00
5413;BME280;2729;50.056;8.678;2023-02-03T10:56:15;101198.09;;;11.64;100.00
5413;BME280;2729;50.056;8.678;2023-02-03T10:58:50;101208.53;;;11.64;100.00
5413;BME280;2729;50.056;8.678;2023-02-03T11:01:19;101197.94;;;11.73;100.00
5413;BME280;2729;50.056;8.678;2023-02-03T11:04:00;101196.13;;;11.81;100.00
5413;BME280;2729;50.056;8.678;2023-02-03T11:06:28;101200.75;;;11.59;100.00
5413;BME280;2729;50.056;8.678;2023-02-03T11:08:55;101178.56;;;11.89;100.00
5413;BME280;2729;50.056;8.678;2023-02-03T11:11:25;101175.66;;;12.06;100.00
5413;BME280;2729;50.056;8.678;2023-02-03T11:13:55;101169.94;;;11.83;100.00
5413;BME280;2729;50.056;8.678;2023-02-03T11:16:35;101143.66;;;11.90;100.00
5413;BME280;2729;50.056;8.678;2023-02-03T11:19:02;101149.31;;;11.62;100.00
5413;BME280;2729;50.056;8.678;2023-02-03T11:21:31;101136.50;;;12.00;100.00
5413;BME280;2729;50.056;8.678;2023-02-03T11:26:45;101128.16;;;11.78;100.00
5413;BME280;2729;50.056;8.678;2023-02-03T11:29:22;101124.66;;;11.79;100.00
5413;BME280;2729;50.056;8.678;2023-02-03T11:31:50;101124.66;;;11.76;100.00
5413;BME280;2729;50.056;8.678;2023-02-03T11:34:24;101134.25;;;11.79;100.00
5413;BME280;2729;50.056;8.678;2023-02-03T11:36:51;101134.09;;;12.37;100.00
5413;BME280;2729;50.056;8.678;2023-02-03T11:39:28;101137.75;;;12.29;100.00
5413;BME280;2729;50.056;8.678;2023-02-03T11:41:55;101143.59;;;11.94;100.00
5413;BME280;2729;50.056;8.678;2023-02-03T11:44:26;101147.91;;;11.98;100.00
5413;BME280;2729;50.056;8.678;2023-02-03T11:47:03;101166.94;;;12.06;100.00
5413;BME280;2729;50.056;8.678;2023-02-03T11:50:02;101162.91;;;11.86;100.00
5413;BME280;2729;50.056;8.678;2023-02-03T12:01:24;101138.91;;;11.57;100.00
5413;BME280;2729;50.056;8.678;2023-02-03T12:07:16;101133.78;;;12.08;100.00
5413;BME280;2729;50.056;8.678;2023-02-03T12:10:07;101130.44;;;11.98;100.00
5413;BME280;2729;50.056;8.678;2023-02-03T12:12:41;101122.31;;;12.15;100.00
5413;BME280;2729;50.056;8.678;2023-02-03T12:18:39;101101.22;;;11.70;100.00
5413;BME280;2729;50.056;8.678;2023-02-03T12:21:40;101086.91;;;11.94;100.00
5413;BME280;2729;50.056;8.678;2023-02-03T12:27:09;101083.50;;;11.89;100.00
5413;BME280;2729;50.056;8.678;2023-02-03T12:29:41;101081.97;;;11.77;100.00
5413;BME280;2729;50.056;8.678;2023-02-03T12:32:26;101084.47;;;11.85;100.00
5413;BME280;2729;50.056;8.678;2023-02-03T12:35:00;101080.56;;;11.55;100.00
5413;BME280;2729;50.056;8.678;2023-02-03T12:37:31;101089.97;;;11.65;100.00
5413;BME280;2729;50.056;8.678;2023-02-03T12:40:02;101091.22;;;11.41;100.00
5413;BME280;2729;50.056;8.678;2023-02-03T12:42:55;101108.19;;;11.14;100.00
5413;BME280;2729;50.056;8.678;2023-02-03T12:45:25;101117.56;;;11.27;100.00
5413;BME280;2729;50.056;8.678;2023-02-03T12:50:29;101136.31;;;11.57;100.00
5413;BME280;2729;50.056;8.678;2023-02-03T12:53:03;101139.94;;;11.47;100.00
5413;BME280;2729;50.056;8.678;2023-02-03T12:55:37;101138.38;;;11.34;100.00
5413;BME280;2729;50.056;8.678;2023-02-03T12:58:10;101153.41;;;11.19;100.00
5413;BME280;2729;50.056;8.678;2023-02-03T13:00:44;101132.63;;;11.10;100.00
5413;BME280;2729;50.056;8.678;2023-02-03T13:03:40;101125.63;;;11.12;100.00
5413;BME280;2729;50.056;8.678;2023-02-03T13:06:23;101109.72;;;11.29;100.00
5413;BME280;2729;50.056;8.678;2023-02-03T13:09:01;101091.91;;;11.54;100.00
5413;BME280;2729;50.056;8.678;2023-02-03T13:14:27;101082.97;;;11.67;100.00
5413;BME280;2729;50.056;8.678;2023-02-03T13:17:02;101088.41;;;11.55;100.00
5413;BME280;2729;50.056;8.678;2023-02-03T13:19:39;101089.25;;;11.57;100.00
5413;BME280;2729;50.056;8.678;2023-02-03T13:22:10;101081.81;;;11.30;100.00
5413;BME280;2729;50.056;8.678;2023-02-03T13:24:39;101072.47;;;11.15;100.00
5413;BME280;2729;50.056;8.678;2023-02-03T13:27:29;101082.22;;;11.02;100.00
5413;BME280;2729;50.056;8.678;2023-02-03T13:30:14;101103.31;;;10.87;100.00
5413;BME280;2729;50.056;8.678;2023-02-03T13:35:51;101092.91;;;10.84;100.00
5413;BME280;2729;50.056;8.678;2023-02-03T13:39:09;101092.72;;;10.99;100.00
5413;BME280;2729;50.056;8.678;2023-02-03T13:41:45;101096.53;;;10.72;100.00
5413;BME280;2729;50.056;8.678;2023-02-03T13:44:16;101096.16;;;11.01;100.00
5413;BME280;2729;50.056;8.678;2023-02-03T13:46:46;101098.19;;;10.81;100.00
5413;BME280;2729;50.056;8.678;2023-02-03T13:49:22;101098.06;;;10.90;100.00
5413;BME280;2729;50.056;8.678;2023-02-03T13:51:48;101092.84;;;10.88;100.00
5413;BME280;2729;50.056;8.678;2023-02-03T13:54:30;101088.31;;;11.03;100.00
5413;BME280;2729;50.056;8.678;2023-02-03T13:57:00;101107.06;;;10.65;100.00
5413;BME280;2729;50.056;8.678;2023-02-03T13:59:38;101091.94;;;10.92;100.00
5413;BME280;2729;50.056;8.678;2023-02-03T14:17:58;101107.97;;;10.63;100.00
5413;BME280;2729;50.056;8.678;2023-02-03T14:25:23;101123.88;;;10.41;100.00
5413;BME280;2729;50.056;8.678;2023-02-03T14:27:59;101129.75;;;10.61;100.00